sensor_id;sensor_type;location;lat;lon;timestamp;P1;durP1;ratioP1;P2;durP2;ratioP2
6282;SDS011;3174;53.486;9.568;2022-10-24T00:00:51;2.13;;;1.30;;
6282;SDS011;3174;53.486;9.568;2022-10-24T00:03:19;3.20;;;1.50;;
6282;SDS011;3174;53.486;9.568;2022-10-24T00:05:47;2.80;;;1.27;;
6282;SDS011;3174;53.486;9.568;2022-10-24T00:08:16;2.20;;;1.23;;
6282;SDS011;3174;53.486;9.568;2022-10-24T00:10:45;4.10;;;1.50;;
6282;SDS011;3174;53.486;9.568;2022-10-24T00:13:14;3.20;;;1.53;;
6282;SDS011;3174;53.486;9.568;2022-10-24T00:15:43;4.83;;;1.20;;
6282;SDS011;3174;53.486;9.568;2022-10-24T00:18:12;1.87;;;1.27;;
6282;SDS011;3174;53.486;9.568;2022-10-24T00:20:40;1.33;;;1.17;;
6282;SDS011;3174;53.486;9.568;2022-10-24T00:23:13;2.67;;;1.37;;
6282;SDS011;3174;53.486;9.568;2022-10-24T00:25:42;1.97;;;1.33;;
6282;SDS011;3174;53.486;9.568;2022-10-24T00:28:10;4.43;;;1.47;;
6282;SDS011;3174;53.486;9.568;2022-10-24T00:30:38;4.67;;;1.63;;
6282;SDS011;3174;53.486;9.568;2022-10-24T00:33:06;2.87;;;1.30;;
6282;SDS011;3174;53.486;9.568;2022-10-24T00:35:34;2.73;;;1.37;;
6282;SDS011;3174;53.486;9.568;2022-10-24T00:38:02;3.47;;;1.20;;
6282;SDS011;3174;53.486;9.568;2022-10-24T00:40:30;2.70;;;1.20;;
6282;SDS011;3174;53.486;9.568;2022-10-24T00:42:59;2.27;;;1.50;;
6282;SDS011;3174;53.486;9.568;2022-10-24T00:45:35;4.00;;;1.40;;
6282;SDS011;3174;53.486;9.568;2022-10-24T00:48:14;4.00;;;1.70;;
6282;SDS011;3174;53.486;9.568;2022-10-24T00:50:45;3.10;;;1.60;;
6282;SDS011;3174;53.486;9.568;2022-10-24T00:53:13;6.47;;;1.73;;
6282;SDS011;3174;53.486;9.568;2022-10-24T00:55:42;2.30;;;1.43;;
6282;SDS011;3174;53.486;9.568;2022-10-24T00:58:14;2.57;;;1.50;;
6282;SDS011;3174;53.486;9.568;2022-10-24T01:00:43;3.20;;;1.70;;
6282;SDS011;3174;53.486;9.568;2022-10-24T01:03:11;5.53;;;1.70;;
6282;SDS011;3174;53.486;9.568;2022-10-24T01:05:41;3.53;;;2.30;;
6282;SDS011;3174;53.486;9.568;2022-10-24T01:08:18;3.27;;;1.57;;
6282;SDS011;3174;53.486;9.568;2022-10-24T01:10:52;2.67;;;1.70;;
6282;SDS011;3174;53.486;9.568;2022-10-24T01:13:27;3.60;;;1.70;;
6282;SDS011;3174;53.486;9.568;2022-10-24T01:16:02;2.87;;;1.43;;
6282;SDS011;3174;53.486;9.568;2022-10-24T01:18:33;2.47;;;1.67;;
6282;SDS011;3174;53.486;9.568;2022-10-24T01:21:06;2.90;;;1.27;;
6282;SDS011;3174;53.486;9.568;2022-10-24T01:30:02;1.90;;;1.30;;
6282;SDS011;3174;53.486;9.568;2022-10-24T01:32:33;4.87;;;1.47;;
6282;SDS011;3174;53.486;9.568;2022-10-24T01:35:06;2.70;;;1.67;;
6282;SDS011;3174;53.486;9.568;2022-10-24T01:37:40;3.10;;;2.23;;
6282;SDS011;3174;53.486;9.568;2022-10-24T01:40:12;2.83;;;1.50;;
6282;SDS011;3174;53.486;9.568;2022-10-24T01:42:41;3.43;;;1.60;;
6282;SDS011;3174;53.486;9.568;2022-10-24T01:45:12;3.60;;;1.60;;
6282;SDS011;3174;53.486;9.568;2022-10-24T01:47:51;2.13;;;1.53;;
6282;SDS011;3174;53.486;9.568;2022-10-24T01:50:21;4.37;;;1.40;;
6282;SDS011;3174;53.486;9.568;2022-10-24T01:52:50;5.83;;;1.50;;
6282;SDS011;3174;53.486;9.568;2022-10-24T01:55:18;2.40;;;1.37;;
6282;SDS011;3174;53.486;9.568;2022-10-24T01:57:46;9.43;;;1.90;;
6282;SDS011;3174;53.486;9.568;2022-10-24T02:00:17;4.13;;;1.47;;
6282;SDS011;3174;53.486;9.568;2022-10-24T02:02:48;6.47;;;1.50;;
6282;SDS011;3174;53.486;9.568;2022-10-24T02:05:18;4.50;;;1.73;;
6282;SDS011;3174;53.486;9.568;2022-10-24T02:07:49;3.63;;;1.20;;
6282;SDS011;3174;53.486;9.568;2022-10-24T02:10:20;1.83;;;1.30;;
6282;SDS011;3174;53.486;9.568;2022-10-24T02:12:51;2.50;;;1.50;;
6282;SDS011;3174;53.486;9.568;2022-10-24T02:15:22;2.93;;;1.60;;
6282;SDS011;3174;53.486;9.568;2022-10-24T02:17:52;2.37;;;1.40;;
6282;SDS011;3174;53.486;9.568;2022-10-24T02:20:21;3.13;;;1.60;;
6282;SDS011;3174;53.486;9.568;2022-10-24T02:22:55;1.90;;;1.60;;
6282;SDS011;3174;53.486;9.568;2022-10-24T02:25:25;2.37;;;1.30;;
6282;SDS011;3174;53.486;9.568;2022-10-24T02:27:57;3.13;;;1.50;;
6282;SDS011;3174;53.486;9.568;2022-10-24T02:30:33;3.40;;;1.70;;
6282;SDS011;3174;53.486;9.568;2022-10-24T02:33:02;2.17;;;1.63;;
6282;SDS011;3174;53.486;9.568;2022-10-24T02:35:32;2.13;;;1.50;;
6282;SDS011;3174;53.486;9.568;2022-10-24T02:38:02;5.33;;;1.63;;
6282;SDS011;3174;53.486;9.568;2022-10-24T02:40:32;2.50;;;1.77;;
6282;SDS011;3174;53.486;9.568;2022-10-24T02:43:01;3.97;;;1.60;;
6282;SDS011;3174;53.486;9.568;2022-10-24T02:45:30;2.43;;;1.30;;
6282;SDS011;3174;53.486;9.568;2022-10-24T02:48:02;7.70;;;1.50;;
6282;SDS011;3174;53.486;9.568;2022-10-24T02:50:32;5.00;;;1.70;;
6282;SDS011;3174;53.486;9.568;2022-10-24T02:53:01;2.63;;;1.70;;
6282;SDS011;3174;53.486;9.568;2022-10-24T02:55:29;2.80;;;1.40;;
6282;SDS011;3174;53.486;9.568;2022-10-24T02:57:57;3.07;;;1.50;;
6282;SDS011;3174;53.486;9.568;2022-10-24T03:00:25;4.87;;;1.53;;
6282;SDS011;3174;53.486;9.568;2022-10-24T03:02:54;1.90;;;1.50;;
6282;SDS011;3174;53.486;9.568;2022-10-24T03:05:22;4.53;;;1.63;;
6282;SDS011;3174;53.486;9.568;2022-10-24T03:07:50;3.43;;;1.57;;
6282;SDS011;3174;53.486;9.568;2022-10-24T03:10:18;3.17;;;1.63;;
6282;SDS011;3174;53.486;9.568;2022-10-24T03:12:46;5.93;;;2.20;;
6282;SDS011;3174;53.486;9.568;2022-10-24T03:15:14;3.33;;;1.50;;
6282;SDS011;3174;53.486;9.568;2022-10-24T03:17:42;4.23;;;1.40;;
6282;SDS011;3174;53.486;9.568;2022-10-24T03:20:15;7.03;;;1.57;;
6282;SDS011;3174;53.486;9.568;2022-10-24T03:22:43;5.17;;;2.67;;
6282;SDS011;3174;53.486;9.568;2022-10-24T03:25:11;3.67;;;1.53;;
6282;SDS011;3174;53.486;9.568;2022-10-24T03:27:40;5.20;;;1.83;;
6282;SDS011;3174;53.486;9.568;2022-10-24T03:30:08;3.83;;;1.43;;
6282;SDS011;3174;53.486;9.568;2022-10-24T03:32:37;1.87;;;1.40;;
6282;SDS011;3174;53.486;9.568;2022-10-24T03:35:20;4.47;;;1.60;;
6282;SDS011;3174;53.486;9.568;2022-10-24T03:37:48;3.93;;;1.53;;
6282;SDS011;3174;53.486;9.568;2022-10-24T03:40:16;4.73;;;1.47;;
6282;SDS011;3174;53.486;9.568;2022-10-24T03:42:44;4.27;;;1.77;;
6282;SDS011;3174;53.486;9.568;2022-10-24T03:45:13;2.77;;;2.00;;
6282;SDS011;3174;53.486;9.568;2022-10-24T03:47:41;3.23;;;1.60;;
6282;SDS011;3174;53.486;9.568;2022-10-24T03:50:09;2.70;;;1.70;;
6282;SDS011;3174;53.486;9.568;2022-10-24T03:52:38;3.33;;;1.53;;
6282;SDS011;3174;53.486;9.568;2022-10-24T03:55:06;2.70;;;1.40;;
6282;SDS011;3174;53.486;9.568;2022-10-24T03:57:35;3.47;;;1.50;;
6282;SDS011;3174;53.486;9.568;2022-10-24T04:00:03;4.43;;;1.40;;
6282;SDS011;3174;53.486;9.568;2022-10-24T04:02:32;3.57;;;1.87;;
6282;SDS011;3174;53.486;9.568;2022-10-24T04:05:04;3.67;;;1.90;;
6282;SDS011;3174;53.486;9.568;2022-10-24T04:07:33;2.33;;;1.50;;
6282;SDS011;3174;53.486;9.568;2022-10-24T04:10:02;3.83;;;1.50;;
6282;SDS011;3174;53.486;9.568;2022-10-24T04:12:30;5.20;;;2.10;;
6282;SDS011;3174;53.486;9.568;2022-10-24T04:14:58;6.37;;;2.17;;
6282;SDS011;3174;53.486;9.568;2022-10-24T04:17:30;4.07;;;2.07;;
6282;SDS011;3174;53.486;9.568;2022-10-24T04:19:58;7.53;;;2.13;;
6282;SDS011;3174;53.486;9.568;2022-10-24T04:22:26;3.60;;;1.47;;
6282;SDS011;3174;53.486;9.568;2022-10-24T04:24:54;5.00;;;1.90;;
6282;SDS011;3174;53.486;9.568;2022-10-24T04:27:23;7.00;;;1.70;;
6282;SDS011;3174;53.486;9.568;2022-10-24T04:29:51;5.80;;;1.80;;
6282;SDS011;3174;53.486;9.568;2022-10-24T04:32:19;6.27;;;2.17;;
6282;SDS011;3174;53.486;9.568;2022-10-24T04:34:47;5.53;;;1.93;;
6282;SDS011;3174;53.486;9.568;2022-10-24T04:37:15;5.57;;;1.70;;
6282;SDS011;3174;53.486;9.568;2022-10-24T04:39:43;2.60;;;2.00;;
6282;SDS011;3174;53.486;9.568;2022-10-24T04:42:11;6.57;;;1.87;;
6282;SDS011;3174;53.486;9.568;2022-10-24T04:44:40;6.13;;;2.10;;
6282;SDS011;3174;53.486;9.568;2022-10-24T04:47:08;4.77;;;1.70;;
6282;SDS011;3174;53.486;9.568;2022-10-24T04:49:36;7.27;;;2.20;;
6282;SDS011;3174;53.486;9.568;2022-10-24T04:52:04;5.33;;;2.00;;
6282;SDS011;3174;53.486;9.568;2022-10-24T04:54:32;3.00;;;1.60;;
6282;SDS011;3174;53.486;9.568;2022-10-24T04:57:00;5.13;;;1.57;;
6282;SDS011;3174;53.486;9.568;2022-10-24T04:59:28;5.63;;;1.70;;
6282;SDS011;3174;53.486;9.568;2022-10-24T05:01:57;6.57;;;2.20;;
6282;SDS011;3174;53.486;9.568;2022-10-24T05:04:25;4.40;;;1.87;;
6282;SDS011;3174;53.486;9.568;2022-10-24T05:06:53;5.80;;;2.27;;
6282;SDS011;3174;53.486;9.568;2022-10-24T05:09:21;5.03;;;1.90;;
6282;SDS011;3174;53.486;9.568;2022-10-24T05:11:49;3.57;;;1.87;;
6282;SDS011;3174;53.486;9.568;2022-10-24T05:14:17;6.47;;;2.00;;
6282;SDS011;3174;53.486;9.568;2022-10-24T05:16:45;4.73;;;2.30;;
6282;SDS011;3174;53.486;9.568;2022-10-24T05:19:15;3.00;;;1.70;;
6282;SDS011;3174;53.486;9.568;2022-10-24T05:21:44;7.27;;;2.93;;
6282;SDS011;3174;53.486;9.568;2022-10-24T05:24:12;3.63;;;2.00;;
6282;SDS011;3174;53.486;9.568;2022-10-24T05:26:40;4.53;;;2.00;;
6282;SDS011;3174;53.486;9.568;2022-10-24T05:29:08;4.03;;;1.80;;
6282;SDS011;3174;53.486;9.568;2022-10-24T05:31:36;4.87;;;1.70;;
6282;SDS011;3174;53.486;9.568;2022-10-24T05:34:04;5.33;;;1.67;;
6282;SDS011;3174;53.486;9.568;2022-10-24T05:36:34;3.63;;;2.10;;
6282;SDS011;3174;53.486;9.568;2022-10-24T05:39:02;4.30;;;1.90;;
6282;SDS011;3174;53.486;9.568;2022-10-24T05:41:30;5.60;;;1.93;;
6282;SDS011;3174;53.486;9.568;2022-10-24T05:43:58;4.30;;;1.97;;
6282;SDS011;3174;53.486;9.568;2022-10-24T05:46:26;7.63;;;1.97;;
6282;SDS011;3174;53.486;9.568;2022-10-24T05:48:53;3.93;;;1.90;;
6282;SDS011;3174;53.486;9.568;2022-10-24T05:51:21;2.47;;;1.60;;
6282;SDS011;3174;53.486;9.568;2022-10-24T05:53:51;4.50;;;1.83;;
6282;SDS011;3174;53.486;9.568;2022-10-24T05:56:19;6.40;;;1.90;;
6282;SDS011;3174;53.486;9.568;2022-10-24T05:58:47;3.63;;;1.70;;
6282;SDS011;3174;53.486;9.568;2022-10-24T06:01:14;3.23;;;2.13;;
6282;SDS011;3174;53.486;9.568;2022-10-24T06:03:43;8.50;;;2.13;;
6282;SDS011;3174;53.486;9.568;2022-10-24T06:06:11;3.57;;;1.90;;
6282;SDS011;3174;53.486;9.568;2022-10-24T06:08:39;4.67;;;1.93;;
6282;SDS011;3174;53.486;9.568;2022-10-24T06:11:09;4.57;;;1.97;;
6282;SDS011;3174;53.486;9.568;2022-10-24T06:13:37;6.07;;;2.77;;
6282;SDS011;3174;53.486;9.568;2022-10-24T06:16:06;2.90;;;1.80;;
6282;SDS011;3174;53.486;9.568;2022-10-24T06:18:34;10.53;;;1.67;;
6282;SDS011;3174;53.486;9.568;2022-10-24T06:21:03;5.07;;;2.33;;
6282;SDS011;3174;53.486;9.568;2022-10-24T06:23:32;5.93;;;2.00;;
6282;SDS011;3174;53.486;9.568;2022-10-24T06:26:00;4.10;;;2.30;;
6282;SDS011;3174;53.486;9.568;2022-10-24T06:28:30;3.60;;;2.07;;
6282;SDS011;3174;53.486;9.568;2022-10-24T06:30:58;2.73;;;1.70;;
6282;SDS011;3174;53.486;9.568;2022-10-24T06:33:28;6.47;;;1.90;;
6282;SDS011;3174;53.486;9.568;2022-10-24T06:35:57;5.87;;;1.90;;
6282;SDS011;3174;53.486;9.568;2022-10-24T06:38:25;4.37;;;1.93;;
6282;SDS011;3174;53.486;9.568;2022-10-24T06:40:53;4.40;;;2.10;;
6282;SDS011;3174;53.486;9.568;2022-10-24T06:43:21;8.03;;;1.97;;
6282;SDS011;3174;53.486;9.568;2022-10-24T06:45:51;6.50;;;2.20;;
6282;SDS011;3174;53.486;9.568;2022-10-24T06:48:20;3.80;;;2.03;;
6282;SDS011;3174;53.486;9.568;2022-10-24T06:50:48;4.00;;;2.00;;
6282;SDS011;3174;53.486;9.568;2022-10-24T06:53:16;5.13;;;2.00;;
6282;SDS011;3174;53.486;9.568;2022-10-24T06:55:49;4.73;;;1.70;;
6282;SDS011;3174;53.486;9.568;2022-10-24T06:58:17;4.10;;;1.70;;
6282;SDS011;3174;53.486;9.568;2022-10-24T07:00:45;5.83;;;1.80;;
6282;SDS011;3174;53.486;9.568;2022-10-24T07:03:14;4.00;;;1.90;;
6282;SDS011;3174;53.486;9.568;2022-10-24T07:05:42;5.13;;;1.70;;
6282;SDS011;3174;53.486;9.568;2022-10-24T07:08:10;6.57;;;2.00;;
6282;SDS011;3174;53.486;9.568;2022-10-24T07:10:38;3.07;;;1.50;;
6282;SDS011;3174;53.486;9.568;2022-10-24T07:13:06;2.80;;;1.80;;
6282;SDS011;3174;53.486;9.568;2022-10-24T07:15:34;4.20;;;2.27;;
6282;SDS011;3174;53.486;9.568;2022-10-24T07:18:02;7.93;;;2.40;;
6282;SDS011;3174;53.486;9.568;2022-10-24T07:20:31;3.23;;;2.00;;
6282;SDS011;3174;53.486;9.568;2022-10-24T07:22:59;4.77;;;2.00;;
6282;SDS011;3174;53.486;9.568;2022-10-24T07:25:27;5.47;;;1.73;;
6282;SDS011;3174;53.486;9.568;2022-10-24T07:27:55;4.33;;;1.90;;
6282;SDS011;3174;53.486;9.568;2022-10-24T07:30:23;2.93;;;1.77;;
6282;SDS011;3174;53.486;9.568;2022-10-24T07:32:51;4.97;;;2.00;;
6282;SDS011;3174;53.486;9.568;2022-10-24T07:35:20;7.13;;;1.90;;
6282;SDS011;3174;53.486;9.568;2022-10-24T07:37:50;5.53;;;1.73;;
6282;SDS011;3174;53.486;9.568;2022-10-24T07:40:19;4.80;;;1.90;;
6282;SDS011;3174;53.486;9.568;2022-10-24T07:42:47;4.90;;;1.83;;
6282;SDS011;3174;53.486;9.568;2022-10-24T07:45:14;7.20;;;4.00;;
6282;SDS011;3174;53.486;9.568;2022-10-24T07:47:42;5.57;;;2.60;;
6282;SDS011;3174;53.486;9.568;2022-10-24T07:50:11;3.17;;;1.90;;
6282;SDS011;3174;53.486;9.568;2022-10-24T07:52:40;3.83;;;1.80;;
6282;SDS011;3174;53.486;9.568;2022-10-24T07:55:10;4.77;;;1.87;;
6282;SDS011;3174;53.486;9.568;2022-10-24T07:57:38;5.93;;;2.40;;
6282;SDS011;3174;53.486;9.568;2022-10-24T08:00:06;9.77;;;2.00;;
6282;SDS011;3174;53.486;9.568;2022-10-24T08:02:35;4.23;;;2.00;;
6282;SDS011;3174;53.486;9.568;2022-10-24T08:05:03;2.77;;;1.70;;
6282;SDS011;3174;53.486;9.568;2022-10-24T08:07:33;4.43;;;2.10;;
6282;SDS011;3174;53.486;9.568;2022-10-24T08:10:02;6.30;;;2.13;;
6282;SDS011;3174;53.486;9.568;2022-10-24T08:12:32;8.80;;;2.27;;
6282;SDS011;3174;53.486;9.568;2022-10-24T08:15:00;3.97;;;1.80;;
6282;SDS011;3174;53.486;9.568;2022-10-24T08:17:29;4.40;;;1.87;;
6282;SDS011;3174;53.486;9.568;2022-10-24T08:19:57;6.03;;;2.20;;
6282;SDS011;3174;53.486;9.568;2022-10-24T08:22:25;3.63;;;1.63;;
6282;SDS011;3174;53.486;9.568;2022-10-24T08:24:53;6.67;;;2.10;;
6282;SDS011;3174;53.486;9.568;2022-10-24T08:27:20;4.60;;;2.23;;
6282;SDS011;3174;53.486;9.568;2022-10-24T08:29:50;3.33;;;1.80;;
6282;SDS011;3174;53.486;9.568;2022-10-24T08:32:18;3.03;;;1.80;;
6282;SDS011;3174;53.486;9.568;2022-10-24T08:34:46;5.77;;;2.10;;
6282;SDS011;3174;53.486;9.568;2022-10-24T08:37:13;4.10;;;1.70;;
6282;SDS011;3174;53.486;9.568;2022-10-24T08:39:41;4.90;;;1.43;;
6282;SDS011;3174;53.486;9.568;2022-10-24T08:42:10;5.10;;;1.90;;
6282;SDS011;3174;53.486;9.568;2022-10-24T08:44:40;6.47;;;1.70;;
6282;SDS011;3174;53.486;9.568;2022-10-24T08:47:14;3.70;;;1.50;;
6282;SDS011;3174;53.486;9.568;2022-10-24T08:49:46;2.13;;;1.40;;
6282;SDS011;3174;53.486;9.568;2022-10-24T08:52:19;6.77;;;2.00;;
6282;SDS011;3174;53.486;9.568;2022-10-24T08:54:50;4.70;;;2.67;;
6282;SDS011;3174;53.486;9.568;2022-10-24T08:57:20;6.00;;;1.77;;
6282;SDS011;3174;53.486;9.568;2022-10-24T08:59:51;8.83;;;2.20;;
6282;SDS011;3174;53.486;9.568;2022-10-24T09:02:23;3.73;;;2.10;;
6282;SDS011;3174;53.486;9.568;2022-10-24T09:04:54;6.80;;;1.90;;
6282;SDS011;3174;53.486;9.568;2022-10-24T09:07:24;6.67;;;1.80;;
6282;SDS011;3174;53.486;9.568;2022-10-24T09:09:57;4.53;;;1.50;;
6282;SDS011;3174;53.486;9.568;2022-10-24T09:12:30;8.10;;;1.50;;
6282;SDS011;3174;53.486;9.568;2022-10-24T09:14:59;2.77;;;1.40;;
6282;SDS011;3174;53.486;9.568;2022-10-24T09:17:30;4.90;;;1.57;;
6282;SDS011;3174;53.486;9.568;2022-10-24T09:20:01;2.57;;;1.70;;
6282;SDS011;3174;53.486;9.568;2022-10-24T09:22:34;5.40;;;1.87;;
6282;SDS011;3174;53.486;9.568;2022-10-24T09:25:07;6.07;;;2.00;;
6282;SDS011;3174;53.486;9.568;2022-10-24T09:27:39;3.90;;;1.80;;
6282;SDS011;3174;53.486;9.568;2022-10-24T09:30:14;4.17;;;1.80;;
6282;SDS011;3174;53.486;9.568;2022-10-24T09:32:44;6.63;;;1.60;;
6282;SDS011;3174;53.486;9.568;2022-10-24T09:35:15;3.07;;;1.33;;
6282;SDS011;3174;53.486;9.568;2022-10-24T09:37:49;3.30;;;1.53;;
6282;SDS011;3174;53.486;9.568;2022-10-24T09:40:21;3.20;;;1.20;;
6282;SDS011;3174;53.486;9.568;2022-10-24T09:42:54;3.43;;;1.67;;
6282;SDS011;3174;53.486;9.568;2022-10-24T09:45:28;3.97;;;1.30;;
6282;SDS011;3174;53.486;9.568;2022-10-24T09:48:14;6.20;;;1.93;;
6282;SDS011;3174;53.486;9.568;2022-10-24T09:50:44;7.03;;;1.60;;
6282;SDS011;3174;53.486;9.568;2022-10-24T09:53:21;6.60;;;1.60;;
6282;SDS011;3174;53.486;9.568;2022-10-24T09:55:53;8.13;;;1.50;;
6282;SDS011;3174;53.486;9.568;2022-10-24T09:58:24;3.90;;;1.80;;
6282;SDS011;3174;53.486;9.568;2022-10-24T10:01:03;4.33;;;1.43;;
6282;SDS011;3174;53.486;9.568;2022-10-24T10:03:34;3.03;;;1.30;;
6282;SDS011;3174;53.486;9.568;2022-10-24T10:06:03;4.87;;;1.40;;
6282;SDS011;3174;53.486;9.568;2022-10-24T10:08:43;4.30;;;1.40;;
6282;SDS011;3174;53.486;9.568;2022-10-24T10:11:55;2.80;;;1.30;;
6282;SDS011;3174;53.486;9.568;2022-10-24T10:14:28;4.00;;;1.20;;
6282;SDS011;3174;53.486;9.568;2022-10-24T10:16:58;6.07;;;1.23;;
6282;SDS011;3174;53.486;9.568;2022-10-24T10:19:29;2.13;;;1.20;;
6282;SDS011;3174;53.486;9.568;2022-10-24T10:22:02;2.07;;;1.13;;
6282;SDS011;3174;53.486;9.568;2022-10-24T10:24:37;5.87;;;1.73;;
6282;SDS011;3174;53.486;9.568;2022-10-24T10:30:08;2.40;;;1.20;;
6282;SDS011;3174;53.486;9.568;2022-10-24T10:32:44;2.03;;;1.00;;
6282;SDS011;3174;53.486;9.568;2022-10-24T10:35:19;2.50;;;1.33;;
6282;SDS011;3174;53.486;9.568;2022-10-24T10:37:49;3.47;;;1.30;;
6282;SDS011;3174;53.486;9.568;2022-10-24T10:40:24;5.47;;;1.40;;
6282;SDS011;3174;53.486;9.568;2022-10-24T10:43:00;2.73;;;1.23;;
6282;SDS011;3174;53.486;9.568;2022-10-24T10:45:44;8.37;;;1.30;;
6282;SDS011;3174;53.486;9.568;2022-10-24T10:48:24;2.70;;;1.00;;
6282;SDS011;3174;53.486;9.568;2022-10-24T10:51:02;3.13;;;1.27;;
6282;SDS011;3174;53.486;9.568;2022-10-24T10:53:36;3.63;;;1.27;;
6282;SDS011;3174;53.486;9.568;2022-10-24T10:56:09;3.57;;;1.47;;
6282;SDS011;3174;53.486;9.568;2022-10-24T10:58:44;3.80;;;1.40;;
6282;SDS011;3174;53.486;9.568;2022-10-24T11:01:19;4.17;;;0.97;;
6282;SDS011;3174;53.486;9.568;2022-10-24T11:03:53;5.37;;;1.40;;
6282;SDS011;3174;53.486;9.568;2022-10-24T11:06:29;7.97;;;1.47;;
6282;SDS011;3174;53.486;9.568;2022-10-24T11:09:11;2.77;;;1.40;;
6282;SDS011;3174;53.486;9.568;2022-10-24T11:11:58;3.87;;;1.10;;
6282;SDS011;3174;53.486;9.568;2022-10-24T11:14:30;10.83;;;1.30;;
6282;SDS011;3174;53.486;9.568;2022-10-24T11:17:06;4.03;;;1.07;;
6282;SDS011;3174;53.486;9.568;2022-10-24T11:19:49;9.67;;;1.50;;
6282;SDS011;3174;53.486;9.568;2022-10-24T11:22:26;2.27;;;1.00;;
6282;SDS011;3174;53.486;9.568;2022-10-24T11:24:58;3.60;;;1.10;;
6282;SDS011;3174;53.486;9.568;2022-10-24T11:27:31;2.90;;;0.97;;
6282;SDS011;3174;53.486;9.568;2022-10-24T11:30:02;1.17;;;0.70;;
6282;SDS011;3174;53.486;9.568;2022-10-24T11:32:33;4.07;;;0.90;;
6282;SDS011;3174;53.486;9.568;2022-10-24T11:35:05;2.77;;;1.13;;
6282;SDS011;3174;53.486;9.568;2022-10-24T11:37:52;2.20;;;1.10;;
6282;SDS011;3174;53.486;9.568;2022-10-24T11:40:22;1.40;;;1.00;;
6282;SDS011;3174;53.486;9.568;2022-10-24T11:42:52;3.40;;;1.13;;
6282;SDS011;3174;53.486;9.568;2022-10-24T11:45:23;2.77;;;1.10;;
6282;SDS011;3174;53.486;9.568;2022-10-24T11:47:57;4.57;;;0.97;;
6282;SDS011;3174;53.486;9.568;2022-10-24T11:50:32;2.27;;;1.20;;
6282;SDS011;3174;53.486;9.568;2022-10-24T11:53:04;2.90;;;1.17;;
6282;SDS011;3174;53.486;9.568;2022-10-24T11:55:44;5.13;;;1.10;;
6282;SDS011;3174;53.486;9.568;2022-10-24T11:58:14;3.47;;;1.10;;
6282;SDS011;3174;53.486;9.568;2022-10-24T12:00:56;3.33;;;1.20;;
6282;SDS011;3174;53.486;9.568;2022-10-24T12:03:42;4.47;;;1.00;;
6282;SDS011;3174;53.486;9.568;2022-10-24T12:06:36;4.60;;;1.50;;
6282;SDS011;3174;53.486;9.568;2022-10-24T12:12:27;2.97;;;0.97;;
6282;SDS011;3174;53.486;9.568;2022-10-24T12:15:05;1.77;;;0.90;;
6282;SDS011;3174;53.486;9.568;2022-10-24T12:20:29;1.57;;;0.90;;
6282;SDS011;3174;53.486;9.568;2022-10-24T12:22:58;3.23;;;0.93;;
6282;SDS011;3174;53.486;9.568;2022-10-24T12:25:29;3.17;;;0.80;;
6282;SDS011;3174;53.486;9.568;2022-10-24T12:27:59;1.87;;;1.00;;
6282;SDS011;3174;53.486;9.568;2022-10-24T12:30:28;3.53;;;1.03;;
6282;SDS011;3174;53.486;9.568;2022-10-24T12:33:05;3.03;;;1.23;;
6282;SDS011;3174;53.486;9.568;2022-10-24T12:35:46;1.30;;;0.97;;
6282;SDS011;3174;53.486;9.568;2022-10-24T12:38:20;2.53;;;0.90;;
6282;SDS011;3174;53.486;9.568;2022-10-24T12:41:37;2.50;;;0.90;;
6282;SDS011;3174;53.486;9.568;2022-10-24T12:44:23;3.57;;;1.17;;
6282;SDS011;3174;53.486;9.568;2022-10-24T12:47:24;0.73;;;0.60;;
6282;SDS011;3174;53.486;9.568;2022-10-24T12:53:15;2.10;;;0.97;;
6282;SDS011;3174;53.486;9.568;2022-10-24T12:58:35;2.07;;;0.97;;
6282;SDS011;3174;53.486;9.568;2022-10-24T13:01:04;2.40;;;1.00;;
6282;SDS011;3174;53.486;9.568;2022-10-24T13:03:44;2.30;;;0.87;;
6282;SDS011;3174;53.486;9.568;2022-10-24T13:06:22;2.90;;;1.00;;
6282;SDS011;3174;53.486;9.568;2022-10-24T13:09:11;1.67;;;0.90;;
6282;SDS011;3174;53.486;9.568;2022-10-24T13:11:51;2.17;;;1.20;;
6282;SDS011;3174;53.486;9.568;2022-10-24T13:14:31;2.77;;;1.07;;
6282;SDS011;3174;53.486;9.568;2022-10-24T13:17:12;2.93;;;0.90;;
6282;SDS011;3174;53.486;9.568;2022-10-24T13:19:42;4.43;;;1.40;;
6282;SDS011;3174;53.486;9.568;2022-10-24T13:22:24;2.53;;;0.97;;
6282;SDS011;3174;53.486;9.568;2022-10-24T13:24:54;2.00;;;0.80;;
6282;SDS011;3174;53.486;9.568;2022-10-24T13:27:27;4.57;;;0.90;;
6282;SDS011;3174;53.486;9.568;2022-10-24T13:30:03;3.57;;;1.27;;
6282;SDS011;3174;53.486;9.568;2022-10-24T13:32:49;6.90;;;1.43;;
6282;SDS011;3174;53.486;9.568;2022-10-24T13:35:19;2.03;;;1.00;;
6282;SDS011;3174;53.486;9.568;2022-10-24T13:37:50;4.20;;;1.10;;
6282;SDS011;3174;53.486;9.568;2022-10-24T13:40:27;3.73;;;1.17;;
6282;SDS011;3174;53.486;9.568;2022-10-24T13:42:57;3.43;;;1.10;;
6282;SDS011;3174;53.486;9.568;2022-10-24T13:45:35;2.93;;;0.97;;
6282;SDS011;3174;53.486;9.568;2022-10-24T13:48:08;4.97;;;1.30;;
6282;SDS011;3174;53.486;9.568;2022-10-24T13:50:45;4.27;;;1.17;;
6282;SDS011;3174;53.486;9.568;2022-10-24T13:53:16;3.73;;;0.90;;
6282;SDS011;3174;53.486;9.568;2022-10-24T13:55:55;6.67;;;1.33;;
6282;SDS011;3174;53.486;9.568;2022-10-24T13:58:26;1.70;;;1.10;;
6282;SDS011;3174;53.486;9.568;2022-10-24T14:01:02;2.57;;;0.90;;
6282;SDS011;3174;53.486;9.568;2022-10-24T14:03:32;3.33;;;1.27;;
6282;SDS011;3174;53.486;9.568;2022-10-24T14:06:03;2.73;;;0.87;;
6282;SDS011;3174;53.486;9.568;2022-10-24T14:08:34;6.63;;;1.07;;
6282;SDS011;3174;53.486;9.568;2022-10-24T14:11:04;3.67;;;1.10;;
6282;SDS011;3174;53.486;9.568;2022-10-24T14:13:35;3.97;;;1.00;;
6282;SDS011;3174;53.486;9.568;2022-10-24T14:16:06;4.20;;;1.10;;
6282;SDS011;3174;53.486;9.568;2022-10-24T14:18:35;2.97;;;1.10;;
6282;SDS011;3174;53.486;9.568;2022-10-24T14:21:04;1.57;;;0.73;;
6282;SDS011;3174;53.486;9.568;2022-10-24T14:23:33;3.57;;;1.47;;
6282;SDS011;3174;53.486;9.568;2022-10-24T14:26:04;3.83;;;0.93;;
6282;SDS011;3174;53.486;9.568;2022-10-24T14:28:35;2.20;;;1.20;;
6282;SDS011;3174;53.486;9.568;2022-10-24T14:31:05;2.23;;;0.80;;
6282;SDS011;3174;53.486;9.568;2022-10-24T14:33:41;2.63;;;1.10;;
6282;SDS011;3174;53.486;9.568;2022-10-24T14:36:10;4.73;;;0.90;;
6282;SDS011;3174;53.486;9.568;2022-10-24T14:38:39;3.23;;;1.10;;
6282;SDS011;3174;53.486;9.568;2022-10-24T14:41:08;6.13;;;0.90;;
6282;SDS011;3174;53.486;9.568;2022-10-24T14:43:37;5.90;;;3.37;;
6282;SDS011;3174;53.486;9.568;2022-10-24T14:46:30;5.93;;;2.00;;
6282;SDS011;3174;53.486;9.568;2022-10-24T14:49:00;3.37;;;1.10;;
6282;SDS011;3174;53.486;9.568;2022-10-24T14:51:46;3.67;;;0.80;;
6282;SDS011;3174;53.486;9.568;2022-10-24T14:54:16;4.03;;;1.37;;
6282;SDS011;3174;53.486;9.568;2022-10-24T14:56:46;2.60;;;1.07;;
6282;SDS011;3174;53.486;9.568;2022-10-24T14:59:18;4.93;;;1.03;;
6282;SDS011;3174;53.486;9.568;2022-10-24T15:01:57;3.43;;;1.33;;
6282;SDS011;3174;53.486;9.568;2022-10-24T15:04:28;3.67;;;0.90;;
6282;SDS011;3174;53.486;9.568;2022-10-24T15:06:56;5.60;;;1.10;;
6282;SDS011;3174;53.486;9.568;2022-10-24T15:09:24;2.80;;;0.90;;
6282;SDS011;3174;53.486;9.568;2022-10-24T15:11:59;4.70;;;0.90;;
6282;SDS011;3174;53.486;9.568;2022-10-24T15:14:32;2.67;;;1.10;;
6282;SDS011;3174;53.486;9.568;2022-10-24T15:20:10;2.47;;;1.30;;
6282;SDS011;3174;53.486;9.568;2022-10-24T15:22:44;5.20;;;1.50;;
6282;SDS011;3174;53.486;9.568;2022-10-24T15:25:16;3.53;;;1.20;;
6282;SDS011;3174;53.486;9.568;2022-10-24T15:27:46;3.90;;;1.10;;
6282;SDS011;3174;53.486;9.568;2022-10-24T15:30:15;4.47;;;1.10;;
6282;SDS011;3174;53.486;9.568;2022-10-24T15:32:47;6.53;;;1.70;;
6282;SDS011;3174;53.486;9.568;2022-10-24T15:35:16;3.17;;;1.10;;
6282;SDS011;3174;53.486;9.568;2022-10-24T15:37:51;1.17;;;0.63;;
6282;SDS011;3174;53.486;9.568;2022-10-24T15:40:20;2.23;;;1.00;;
6282;SDS011;3174;53.486;9.568;2022-10-24T15:42:49;1.73;;;1.13;;
6282;SDS011;3174;53.486;9.568;2022-10-24T15:45:18;2.20;;;0.87;;
6282;SDS011;3174;53.486;9.568;2022-10-24T15:47:47;4.33;;;1.00;;
6282;SDS011;3174;53.486;9.568;2022-10-24T15:50:17;5.30;;;1.13;;
6282;SDS011;3174;53.486;9.568;2022-10-24T15:52:48;7.20;;;1.20;;
6282;SDS011;3174;53.486;9.568;2022-10-24T15:55:18;4.43;;;1.47;;
6282;SDS011;3174;53.486;9.568;2022-10-24T15:57:47;7.80;;;1.30;;
6282;SDS011;3174;53.486;9.568;2022-10-24T16:00:16;4.57;;;1.40;;
6282;SDS011;3174;53.486;9.568;2022-10-24T16:02:47;3.63;;;0.90;;
6282;SDS011;3174;53.486;9.568;2022-10-24T16:05:17;6.40;;;1.30;;